Time,TemperatureF,DewpointF,PressureIn,WindDirection,WindDirectionDegrees,WindSpeedMPH,WindSpeedGustMPH,Humidity,HourlyPrecipIn,Conditions,Clouds,dailyrainin,SoftwareType,DateUTC
2013-06-05 00:12:00,62.1,61.8,29.85,South,180,0.0,-999.0,99,-99.99,,,0.00,Acu-Link.com,2013-06-05 04:12:00,
2013-06-05 00:27:00,61.5,61.2,29.85,South,180,0.0,-999.0,99,-99.99,,,0.00,Acu-Link.com,2013-06-05 04:27:00,
2013-06-05 00:42:00,61.3,61.0,29.85,SSE,157,0.0,-999.0,99,-99.99,,,0.00,Acu-Link.com,2013-06-05 04:42:00,
2013-06-05 00:57:00,61.0,60.7,29.85,East,90,0.0,-999.0,99,-99.99,,,0.00,Acu-Link.com,2013-06-05 04:57:00,
2013-06-05 01:13:00,61.0,60.7,29.84,NW,315,0.0,-999.0,99,-99.99,,,0.00,Acu-Link.com,2013-06-05 05:13:00,
2013-06-05 01:28:00,61.0,60.7,29.84,WSW,247,0.0,-999.0,99,-99.99,,,0.00,Acu-Link.com,2013-06-05 05:28:00,
2013-06-05 01:43:00,61.2,60.9,29.84,ESE,112,0.0,-999.0,99,-99.99,,,0.00,Acu-Link.com,2013-06-05 05:43:00,
2013-06-05 01:58:00,60.8,60.5,29.83,SSW,202,0.0,-999.0,99,-99.99,,,0.00,Acu-Link.com,2013-06-05 05:58:00,
2013-06-05 02:13:00,61.0,60.7,29.83,ESE,112,0.0,-999.0,99,-99.99,,,0.00,Acu-Link.com,2013-06-05 06:13:00,
2013-06-05 02:28:00,60.8,60.5,29.83,SSE,157,0.0,-999.0,99,-99.99,,,0.00,Acu-Link.com,2013-06-05 06:28:00,
2013-06-05 02:44:00,61.2,60.9,29.84,NW,315,0.0,-999.0,99,-99.99,,,0.00,Acu-Link.com,2013-06-05 06:44:00,
2013-06-05 02:59:00,61.0,60.7,29.83,West,270,0.0,-999.0,99,-99.99,,,0.00,Acu-Link.com,2013-06-05 06:59:00,
2013-06-05 03:14:00,61.2,60.9,29.83,East,90,0.0,-999.0,99,-99.99,,,0.00,Acu-Link.com,2013-06-05 07:14:00,
2013-06-05 03:29:00,61.2,60.9,29.83,NW,315,0.0,-999.0,99,-99.99,,,0.00,Acu-Link.com,2013-06-05 07:29:00,
2013-06-05 03:44:00,61.2,60.9,29.83,ESE,112,0.0,-999.0,99,-99.99,,,0.00,Acu-Link.com,2013-06-05 07:44:00,
2013-06-05 03:59:00,61.2,60.9,29.84,ESE,112,0.0,-999.0,99,-99.99,,,0.00,Acu-Link.com,2013-06-05 07:59:00,
2013-06-05 04:15:00,61.3,61.0,29.84,South,180,0.0,-999.0,99,-99.99,,,0.00,Acu-Link.com,2013-06-05 08:15:00,
2013-06-05 04:30:00,61.3,61.0,29.85,East,90,0.0,-999.0,99,-99.99,,,0.00,Acu-Link.com,2013-06-05 08:30:00,
2013-06-05 04:45:00,61.9,61.6,29.85,SE,135,0.0,-999.0,99,-99.99,,,0.00,Acu-Link.com,2013-06-05 08:45:00,
2013-06-05 05:00:00,61.7,61.4,29.84,WSW,247,0.0,-999.0,99,-99.99,,,0.00,Acu-Link.com,2013-06-05 09:00:00,
2013-06-05 05:15:00,61.3,61.0,29.85,SSW,202,0.0,-999.0,99,-99.99,,,0.00,Acu-Link.com,2013-06-05 09:15:00,
2013-06-05 05:30:00,62.1,61.8,29.85,ESE,112,0.0,-999.0,99,-99.99,,,0.00,Acu-Link.com,2013-06-05 09:30:00,
2013-06-05 05:45:00,62.2,61.9,29.85,ESE,112,0.0,-999.0,99,-99.99,,,0.00,Acu-Link.com,2013-06-05 09:45:00,
2013-06-05 06:01:00,61.9,61.6,29.85,East,90,0.0,-999.0,99,-99.99,,,0.00,Acu-Link.com,2013-06-05 10:01:00,
2013-06-05 06:16:00,61.5,61.2,29.86,ENE,67,0.0,-999.0,99,-99.99,,,0.00,Acu-Link.com,2013-06-05 10:16:00,
2013-06-05 06:46:00,61.7,61.4,29.86,SSE,157,0.0,-999.0,99,-99.99,,,0.00,Acu-Link.com,2013-06-05 10:46:00,
2013-06-05 07:16:00,63.3,63.0,29.87,NE,45,0.0,-999.0,99,-99.99,,,0.00,Acu-Link.com,2013-06-05 11:16:00,
2013-06-05 07:31:00,64.4,64.1,29.87,ESE,112,0.0,-999.0,99,-99.99,,,0.00,Acu-Link.com,2013-06-05 11:31:00,
2013-06-05 07:46:00,65.1,64.8,29.86,South,180,0.0,-999.0,99,-99.99,,,0.00,Acu-Link.com,2013-06-05 11:46:00,
2013-06-05 08:01:00,67.8,67.2,29.87,West,270,0.0,-999.0,98,-99.99,,,0.00,Acu-Link.com,2013-06-05 12:01:00,
2013-06-05 08:32:00,73.6,68.1,29.86,West,270,0.0,-999.0,83,-99.99,,,0.00,Acu-Link.com,2013-06-05 12:32:00,
2013-06-05 08:47:00,77.4,69.2,29.87,East,90,0.0,-999.0,76,-99.99,,,0.00,Acu-Link.com,2013-06-05 12:47:00,
2013-06-05 09:02:00,81.7,69.2,29.87,East,90,0.0,-999.0,66,-99.99,,,0.00,Acu-Link.com,2013-06-05 13:02:00,
2013-06-05 09:17:00,82.2,68.8,29.86,NNE,22,0.0,-999.0,64,-99.99,,,0.00,Acu-Link.com,2013-06-05 13:17:00,
2013-06-05 09:32:00,82.0,69.9,29.86,NW,315,0.0,-999.0,67,-99.99,,,0.00,Acu-Link.com,2013-06-05 13:32:00,
2013-06-05 09:47:00,84.9,69.4,29.86,NW,315,0.0,-999.0,60,-99.99,,,0.00,Acu-Link.com,2013-06-05 13:47:00,
2013-06-05 10:02:00,87.4,69.7,29.84,WNW,292,0.0,-999.0,56,-99.99,,,0.00,Acu-Link.com,2013-06-05 14:02:00,
2013-06-05 10:17:00,88.5,70.2,29.84,SSW,202,0.0,-999.0,55,-99.99,,,0.00,Acu-Link.com,2013-06-05 14:17:00,
2013-06-05 10:33:00,90.9,70.2,29.84,ENE,67,2.7,-999.0,51,-99.99,,,0.00,Acu-Link.com,2013-06-05 14:33:00,
2013-06-05 10:48:00,80.1,68.6,29.84,NW,315,2.2,-999.0,68,-99.99,,,0.00,Acu-Link.com,2013-06-05 14:48:00,
2013-06-05 11:03:00,83.8,68.9,29.85,ENE,67,0.0,-999.0,61,-99.99,,,0.00,Acu-Link.com,2013-06-05 15:03:00,
2013-06-05 11:18:00,82.6,70.5,29.84,NNE,22,2.7,-999.0,67,-99.99,,,0.00,Acu-Link.com,2013-06-05 15:18:00,
2013-06-05 11:33:00,84.7,69.2,29.85,ESE,112,3.7,-999.0,60,-99.99,,,0.00,Acu-Link.com,2013-06-05 15:33:00,
2013-06-05 11:48:00,83.3,69.4,29.86,West,270,2.2,-999.0,63,-99.99,,,0.00,Acu-Link.com,2013-06-05 15:48:00,
2013-06-05 12:03:00,84.6,71.1,29.85,South,180,2.2,-999.0,64,-99.99,,,0.00,Acu-Link.com,2013-06-05 16:03:00,
2013-06-05 12:18:00,85.8,73.1,29.84,NW,315,2.7,-999.0,66,-99.99,,,0.00,Acu-Link.com,2013-06-05 16:18:00,
2013-06-05 12:33:00,86.2,70.7,29.83,WSW,247,2.7,-999.0,60,-99.99,,,0.00,Acu-Link.com,2013-06-05 16:33:00,
2013-06-05 12:49:00,85.1,72.0,29.82,NNW,337,2.7,-999.0,65,-99.99,,,0.00,Acu-Link.com,2013-06-05 16:49:00,
2013-06-05 13:04:00,86.0,72.4,29.81,SE,135,7.3,-999.0,64,-99.99,,,0.00,Acu-Link.com,2013-06-05 17:04:00,
2013-06-05 13:19:00,85.8,71.2,29.81,SSE,157,1.1,-999.0,62,-99.99,,,0.00,Acu-Link.com,2013-06-05 17:19:00,
2013-06-05 13:34:00,84.9,71.3,29.80,South,180,2.7,-999.0,64,-99.99,,,0.00,Acu-Link.com,2013-06-05 17:34:00,
2013-06-05 13:49:00,86.5,71.9,29.79,SSW,202,4.7,-999.0,62,-99.99,,,0.00,Acu-Link.com,2013-06-05 17:49:00,
2013-06-05 14:04:00,84.9,71.3,29.79,WSW,247,1.7,-999.0,64,-99.99,,,0.00,Acu-Link.com,2013-06-05 18:04:00,
2013-06-05 14:19:00,83.8,70.8,29.78,SSW,202,2.2,-999.0,65,-99.99,,,0.00,Acu-Link.com,2013-06-05 18:19:00,
2013-06-05 14:34:00,84.9,70.9,29.78,SE,135,2.7,-999.0,63,-99.99,,,0.00,Acu-Link.com,2013-06-05 18:34:00,
2013-06-05 14:49:00,83.5,70.9,29.78,WSW,247,4.7,-999.0,66,-99.99,,,0.00,Acu-Link.com,2013-06-05 18:49:00,
2013-06-05 15:05:00,82.4,71.2,29.77,SSW,202,4.7,-999.0,69,-99.99,,,0.00,Acu-Link.com,2013-06-05 19:05:00,
2013-06-05 15:20:00,81.7,71.4,29.78,SSW,202,3.7,-999.0,71,-99.99,,,0.00,Acu-Link.com,2013-06-05 19:20:00,
2013-06-05 15:35:00,82.4,71.6,29.79,NNE,22,0.0,-999.0,70,-99.99,,,0.00,Acu-Link.com,2013-06-05 19:35:00,
2013-06-05 15:50:00,75.2,63.9,29.81,West,270,7.8,-999.0,68,-99.99,,,0.00,Acu-Link.com,2013-06-05 19:50:00,
2013-06-05 16:05:00,70.5,64.0,29.81,SSE,157,11.4,-999.0,80,-99.99,,,0.00,Acu-Link.com,2013-06-05 20:05:00,
2013-06-05 16:20:00,67.3,65.8,29.81,WSW,247,7.8,-999.0,95,-99.99,,,0.10,Acu-Link.com,2013-06-05 20:20:00,
2013-06-05 16:35:00,66.6,66.3,29.82,NW,315,2.7,-999.0,99,-99.99,,,0.61,Acu-Link.com,2013-06-05 20:35:00,
2013-06-05 16:51:00,66.7,66.4,29.82,ESE,112,0.0,-999.0,99,-99.99,,,0.65,Acu-Link.com,2013-06-05 20:51:00,
2013-06-05 17:06:00,66.6,66.3,29.82,ESE,112,0.0,-999.0,99,-99.99,,,0.67,Acu-Link.com,2013-06-05 21:06:00,
2013-06-05 17:21:00,66.4,66.1,29.82,NE,45,1.7,-999.0,99,-99.99,,,0.73,Acu-Link.com,2013-06-05 21:21:00,
2013-06-05 17:36:00,66.2,65.9,29.82,SSE,157,2.2,-999.0,99,-99.99,,,0.78,Acu-Link.com,2013-06-05 21:36:00,
2013-06-05 18:06:00,66.4,66.1,29.79,ESE,112,0.0,-999.0,99,-99.99,,,0.86,Acu-Link.com,2013-06-05 22:06:00,
2013-06-05 18:36:00,67.5,67.2,29.77,WNW,292,0.0,-999.0,99,-99.99,,,0.93,Acu-Link.com,2013-06-05 22:36:00,
2013-06-05 18:51:00,68.0,67.7,29.75,SE,135,1.7,-999.0,99,-99.99,,,0.93,Acu-Link.com,2013-06-05 22:51:00,
2013-06-05 19:07:00,68.5,67.9,29.75,West,270,0.0,-999.0,98,-99.99,,,0.93,Acu-Link.com,2013-06-05 23:07:00,
2013-06-05 19:22:00,68.9,68.6,29.77,North,0,0.0,-999.0,99,-99.99,,,0.93,Acu-Link.com,2013-06-05 23:22:00,
2013-06-05 19:37:00,68.4,67.8,29.77,West,270,0.0,-999.0,98,-99.99,,,0.93,Acu-Link.com,2013-06-05 23:37:00,
2013-06-05 19:52:00,68.2,67.6,29.77,ESE,112,0.0,-999.0,98,-99.99,,,0.93,Acu-Link.com,2013-06-05 23:52:00,
2013-06-05 20:07:00,68.0,67.7,29.78,SW,225,0.0,-999.0,99,-99.99,,,0.93,Acu-Link.com,2013-06-06 00:07:00,
2013-06-05 20:22:00,67.3,67.0,29.78,ESE,112,0.0,-999.0,99,-99.99,,,0.93,Acu-Link.com,2013-06-06 00:22:00,
2013-06-05 20:37:00,67.1,66.8,29.78,South,180,0.0,-999.0,99,-99.99,,,0.93,Acu-Link.com,2013-06-06 00:37:00,
2013-06-05 20:52:00,66.7,66.4,29.79,WNW,292,0.0,-999.0,99,-99.99,,,0.93,Acu-Link.com,2013-06-06 00:52:00,
2013-06-05 21:07:00,66.6,66.3,29.79,East,90,0.0,-999.0,99,-99.99,,,0.93,Acu-Link.com,2013-06-06 01:07:00,
2013-06-05 21:23:00,66.6,66.3,29.79,ENE,67,0.0,-999.0,99,-99.99,,,0.94,Acu-Link.com,2013-06-06 01:23:00,
2013-06-05 21:38:00,66.2,65.9,29.78,WNW,292,0.0,-999.0,99,-99.99,,,0.95,Acu-Link.com,2013-06-06 01:38:00,
2013-06-05 21:53:00,66.0,65.7,29.78,West,270,0.0,-999.0,99,-99.99,,,0.95,Acu-Link.com,2013-06-06 01:53:00,
2013-06-05 22:08:00,65.8,65.5,29.79,SSE,157,0.0,-999.0,99,-99.99,,,0.95,Acu-Link.com,2013-06-06 02:08:00,
2013-06-05 22:23:00,65.8,65.5,29.78,NE,45,0.0,-999.0,99,-99.99,,,0.95,Acu-Link.com,2013-06-06 02:23:00,
2013-06-05 22:38:00,65.5,65.2,29.78,NW,315,0.0,-999.0,99,-99.99,,,0.95,Acu-Link.com,2013-06-06 02:38:00,
2013-06-05 22:54:00,65.5,65.2,29.78,SE,135,0.0,-999.0,99,-99.99,,,0.95,Acu-Link.com,2013-06-06 02:54:00,
2013-06-05 23:09:00,65.5,65.2,29.78,NNE,22,0.0,-999.0,99,-99.99,,,0.95,Acu-Link.com,2013-06-06 03:09:00,
2013-06-05 23:24:00,65.5,65.2,29.78,NW,315,0.0,-999.0,99,-99.99,,,0.95,Acu-Link.com,2013-06-06 03:24:00,
2013-06-05 23:39:00,65.3,65.0,29.77,SE,135,0.0,-999.0,99,-99.99,,,0.95,Acu-Link.com,2013-06-06 03:39:00,
2013-06-05 23:54:00,65.1,64.8,29.76,WNW,292,0.0,-999.0,99,-99.99,,,0.95,Acu-Link.com,2013-06-06 03:54:00,